createdAt,value
2022-10-19T00:00:05.533Z,100509.97
2022-10-19T00:00:17.493Z,100509.91
2022-10-19T00:00:29.403Z,100510.69
2022-10-19T00:00:41.298Z,100507.97
2022-10-19T00:01:08.820Z,100503.56
2022-10-19T00:01:22.676Z,100506.19
2022-10-19T00:01:36.619Z,100507.03
2022-10-19T00:01:48.656Z,100503.50
2022-10-19T00:02:00.639Z,100510.44
2022-10-19T00:02:12.659Z,100506.06
2022-10-19T00:02:24.631Z,100508.59
2022-10-19T00:02:37.102Z,100512.00
2022-10-19T00:02:48.991Z,100508.50
2022-10-19T00:03:00.926Z,100504.22
2022-10-19T00:03:12.873Z,100507.66
2022-10-19T00:03:24.793Z,100505.88
2022-10-19T00:03:37.128Z,100508.50
2022-10-19T00:03:54.996Z,100506.66
2022-10-19T00:04:08.783Z,100504.09
2022-10-19T00:04:21.329Z,100507.66
2022-10-19T00:04:33.242Z,100509.38
2022-10-19T00:04:45.369Z,100503.28
2022-10-19T00:04:57.258Z,100511.16
2022-10-19T00:05:09.461Z,100506.06
2022-10-19T00:05:21.365Z,100507.75
2022-10-19T00:05:33.272Z,100502.41
2022-10-19T00:05:45.173Z,100506.72
2022-10-19T00:05:57.092Z,100505.81
2022-10-19T00:06:18.350Z,100504.28
2022-10-19T00:06:35.593Z,100509.47
2022-10-19T00:06:47.566Z,100505.91
2022-10-19T00:06:59.542Z,100506.75
2022-10-19T00:07:11.433Z,100515.50
2022-10-19T00:07:23.323Z,100505.03
2022-10-19T00:07:35.505Z,100509.34
2022-10-19T00:07:47.714Z,100507.66
2022-10-19T00:08:01.652Z,100511.97
2022-10-19T00:08:13.581Z,100509.47
2022-10-19T00:08:25.661Z,100506.75
2022-10-19T00:08:37.813Z,100511.06
2022-10-19T00:08:49.697Z,100511.06
2022-10-19T00:09:06.214Z,100511.06
2022-10-19T00:09:19.556Z,100509.34
2022-10-19T00:09:31.476Z,100519.81
2022-10-19T00:09:44.364Z,100510.25
2022-10-19T00:09:56.265Z,100509.38
2022-10-19T00:10:08.750Z,100513.69
2022-10-19T00:10:20.681Z,100517.16
2022-10-19T00:10:32.880Z,100511.91
2022-10-19T00:10:44.785Z,100509.22
2022-10-19T00:10:56.659Z,100516.09
2022-10-19T00:11:09.011Z,100512.47
2022-10-19T00:11:21.416Z,100508.97
2022-10-19T00:11:34.720Z,100521.97
2022-10-19T00:11:48.834Z,100508.81
2022-10-19T00:12:00.807Z,100515.63
2022-10-19T00:12:13.248Z,100513.78
2022-10-19T00:12:25.179Z,100510.28
2022-10-19T00:12:37.916Z,100513.69
2022-10-19T00:12:50.205Z,100511.84
2022-10-19T00:13:02.131Z,100519.56
2022-10-19T00:13:14.060Z,100516.03
2022-10-19T00:13:25.995Z,100511.56
2022-10-19T00:13:38.391Z,100518.50
2022-10-19T00:13:51.330Z,100514.13
2022-10-19T00:14:04.185Z,100515.84
2022-10-19T00:14:19.419Z,100517.47
2022-10-19T00:14:31.352Z,100513.00
2022-10-19T00:14:43.280Z,100517.28
2022-10-19T00:14:55.247Z,100512.88
2022-10-19T00:15:07.665Z,100512.81
2022-10-19T00:15:19.731Z,100510.97
2022-10-19T00:15:31.614Z,100516.19
2022-10-19T00:15:45.033Z,100515.38
2022-10-19T00:15:56.933Z,100517.00
2022-10-19T00:16:11.781Z,100517.84
2022-10-19T00:16:25.051Z,100521.41
2022-10-19T00:16:38.633Z,100513.41
2022-10-19T00:16:52.930Z,100517.75
2022-10-19T00:17:04.860Z,100514.34
2022-10-19T00:17:16.875Z,100516.88
2022-10-19T00:17:28.823Z,100518.66
2022-10-19T00:17:43.132Z,100518.66
2022-10-19T00:17:55.821Z,100512.59
2022-10-19T00:18:08.797Z,100514.44
2022-10-19T00:18:20.741Z,100515.22
2022-10-19T00:18:32.616Z,100517.84
2022-10-19T00:18:45.146Z,100515.22
2022-10-19T00:18:59.011Z,100514.34
2022-10-19T00:19:16.879Z,100515.22
2022-10-19T00:19:28.945Z,100517.84
2022-10-19T00:19:40.973Z,100510.03
2022-10-19T00:19:52.941Z,100511.72
2022-10-19T00:20:05.375Z,100518.66
2022-10-19T00:20:17.340Z,100514.19
2022-10-19T00:20:29.235Z,100510.66
2022-10-19T00:20:41.168Z,100512.34
2022-10-19T00:20:53.087Z,100504.53
2022-10-19T00:21:07.059Z,100514.06
2022-10-19T00:21:19.769Z,100512.34
2022-10-19T00:21:32.165Z,100512.34
2022-10-19T00:21:44.177Z,100514.06
2022-10-19T00:21:56.127Z,100520.22
2022-10-19T00:22:10.372Z,100512.34
2022-10-19T00:22:25.042Z,100512.50
2022-10-19T00:22:36.981Z,100516.97
2022-10-19T00:22:50.679Z,100512.75
2022-10-19T00:23:02.616Z,100509.31
2022-10-19T00:23:14.813Z,100506.69
2022-10-19T00:23:26.706Z,100515.56
2022-10-19T00:23:38.762Z,100514.72
2022-10-19T00:23:50.665Z,100511.16
2022-10-19T00:24:02.597Z,100508.53
2022-10-19T00:24:14.746Z,100512.03
2022-10-19T00:24:26.725Z,100512.88
2022-10-19T00:24:38.792Z,100511.03
2022-10-19T00:24:50.718Z,100511.03
2022-10-19T00:25:02.844Z,100515.28
2022-10-19T00:25:14.877Z,100512.75
2022-10-19T00:25:26.809Z,100511.72
2022-10-19T00:25:38.807Z,100509.09
2022-10-19T00:25:57.099Z,100509.78
2022-10-19T00:26:09.508Z,100505.25
2022-10-19T00:26:21.406Z,100513.06
2022-10-19T00:26:33.735Z,100519.03
2022-10-19T00:26:45.699Z,100506.69
2022-10-19T00:26:57.816Z,100510.09
2022-10-19T00:27:10.045Z,100514.41
2022-10-19T00:27:21.932Z,100513.41
2022-10-19T00:27:33.991Z,100516.00
2022-10-19T00:27:45.908Z,100512.56
2022-10-19T00:27:57.831Z,100509.84
2022-10-19T00:28:09.842Z,100512.50
2022-10-19T00:28:21.892Z,100515.97
2022-10-19T00:28:34.378Z,100516.81
2022-10-19T00:28:46.386Z,100511.56
2022-10-19T00:28:58.469Z,100518.53
2022-10-19T00:29:12.780Z,100508.03
2022-10-19T00:29:24.739Z,100514.97
2022-10-19T00:29:36.631Z,100514.97
2022-10-19T00:29:48.589Z,100513.38
2022-10-19T00:30:01.330Z,100515.13
2022-10-19T00:30:13.224Z,100518.66
2022-10-19T00:30:25.227Z,100511.78
2022-10-19T00:30:38.424Z,100519.03
2022-10-19T00:30:50.434Z,100512.91
2022-10-19T00:31:05.104Z,100514.69
2022-10-19T00:31:18.075Z,100517.31
2022-10-19T00:31:30.019Z,100515.75
2022-10-19T00:31:42.703Z,100512.22
2022-10-19T00:31:54.626Z,100516.69
2022-10-19T00:32:06.541Z,100506.19
2022-10-19T00:32:19.741Z,100510.38
2022-10-19T00:32:31.798Z,100508.53
2022-10-19T00:32:43.900Z,100511.06
2022-10-19T00:32:55.960Z,100510.09
2022-10-19T00:33:07.937Z,100506.59
2022-10-19T00:33:22.386Z,100512.63
2022-10-19T00:33:34.443Z,100511.78
2022-10-19T00:33:47.164Z,100510.88
2022-10-19T00:33:59.980Z,100511.66
2022-10-19T00:34:11.985Z,100514.28
2022-10-19T00:34:24.736Z,100506.53
2022-10-19T00:34:36.677Z,100517.03
2022-10-19T00:34:48.581Z,100511.06
2022-10-19T00:35:01.706Z,100511.78
2022-10-19T00:35:13.600Z,100510.09
2022-10-19T00:35:25.538Z,100507.47
2022-10-19T00:35:40.893Z,100503.84
2022-10-19T00:35:52.856Z,100504.69
2022-10-19T00:36:05.669Z,100509.94
2022-10-19T00:36:21.276Z,100511.66
2022-10-19T00:36:36.354Z,100506.41
2022-10-19T00:36:48.651Z,100508.25
2022-10-19T00:37:00.636Z,100508.25
2022-10-19T00:37:12.565Z,100509.94
2022-10-19T00:37:24.520Z,100505.50
2022-10-19T00:37:36.462Z,100505.50
2022-10-19T00:37:48.365Z,100508.13
2022-10-19T00:38:00.281Z,100502.88
2022-10-19T00:38:12.213Z,100503.78
2022-10-19T00:38:24.544Z,100509.84
2022-10-19T00:38:36.416Z,100501.91
2022-10-19T00:38:48.763Z,100508.03
2022-10-19T00:39:01.850Z,100502.75
2022-10-19T00:39:15.775Z,100506.28
2022-10-19T00:39:27.711Z,100509.72
2022-10-19T00:39:39.836Z,100499.34
2022-10-19T00:40:04.193Z,100502.69
2022-10-19T00:40:16.148Z,100507.88
2022-10-19T00:40:28.080Z,100506.03
2022-10-19T00:40:41.297Z,100507.75
2022-10-19T00:40:53.247Z,100505.91
2022-10-19T00:41:05.264Z,100507.75
2022-10-19T00:41:19.640Z,100501.66
2022-10-19T00:41:34.568Z,100503.41
2022-10-19T00:41:48.656Z,100507.88
2022-10-19T00:42:00.588Z,100503.50
2022-10-19T00:42:12.912Z,100507.09
2022-10-19T00:42:24.891Z,100500.91
2022-10-19T00:42:36.809Z,100508.88
2022-10-19T00:42:55.773Z,100508.03
2022-10-19T00:43:20.871Z,100508.66
2022-10-19T00:43:32.798Z,100504.34
2022-10-19T00:44:08.200Z,100501.44
2022-10-19T00:44:20.034Z,100497.78
2022-10-19T00:44:31.865Z,100498.66
2022-10-19T00:44:43.748Z,100500.38
2022-10-19T00:45:01.844Z,100501.16
2022-10-19T00:45:16.343Z,100501.28
2022-10-19T00:45:28.246Z,100500.38
2022-10-19T00:45:40.239Z,100495.09
2022-10-19T00:45:52.881Z,100504.78
2022-10-19T00:46:04.785Z,100503.00
2022-10-19T00:46:16.679Z,100499.53
2022-10-19T00:46:30.869Z,100502.16
2022-10-19T00:46:45.281Z,100499.53
2022-10-19T00:47:04.834Z,100514.56
2022-10-19T00:47:22.516Z,100511.16
2022-10-19T00:47:34.500Z,100510.44
2022-10-19T00:47:46.654Z,100502.81
2022-10-19T00:47:58.549Z,100511.56
2022-10-19T00:48:15.340Z,100509.84
2022-10-19T00:48:33.053Z,100505.13
2022-10-19T00:48:45.192Z,100507.88
2022-10-19T00:49:07.028Z,100508.81
2022-10-19T00:49:28.612Z,100507.53
2022-10-19T00:49:45.037Z,100508.25
2022-10-19T00:49:58.588Z,100506.69
2022-10-19T00:50:13.868Z,100507.53
2022-10-19T00:50:25.853Z,100503.84
2022-10-19T00:50:38.095Z,100508.25
2022-10-19T00:50:51.595Z,100503.78
2022-10-19T00:51:03.733Z,100507.19
2022-10-19T00:51:15.942Z,100507.09
2022-10-19T00:51:29.253Z,100504.34
2022-10-19T00:51:44.985Z,100505.13
2022-10-19T00:52:12.910Z,100502.28
2022-10-19T00:52:26.103Z,100491.69
2022-10-19T00:52:38.233Z,100503.84
2022-10-19T00:52:50.185Z,100495.97
2022-10-19T00:53:02.164Z,100503.00
2022-10-19T00:53:14.795Z,100502.22
2022-10-19T00:53:30.547Z,100496.13
2022-10-19T00:53:42.493Z,100501.22
2022-10-19T00:53:56.233Z,100498.53
2022-10-19T00:54:09.480Z,100499.28
2022-10-19T00:54:22.133Z,100496.66
2022-10-19T00:54:36.697Z,100501.16
2022-10-19T00:54:51.465Z,100505.56
2022-10-19T00:55:03.972Z,100503.91
2022-10-19T00:55:16.518Z,100496.78
2022-10-19T00:55:28.652Z,100493.25
2022-10-19T00:55:41.453Z,100491.41
2022-10-19T00:55:54.579Z,100493.09
2022-10-19T00:56:11.919Z,100497.59
2022-10-19T00:56:24.297Z,100499.41
2022-10-19T00:56:40.565Z,100492.41
2022-10-19T00:56:57.765Z,100500.22
2022-10-19T00:57:10.585Z,100503.63
2022-10-19T00:57:23.409Z,100490.47
2022-10-19T00:57:35.884Z,100505.34
2022-10-19T00:57:47.852Z,100500.09
2022-10-19T00:58:00.925Z,100498.22
2022-10-19T00:58:13.726Z,100499.06
2022-10-19T00:58:25.689Z,100495.59
2022-10-19T00:58:38.249Z,100495.53
2022-10-19T00:58:50.322Z,100498.09
2022-10-19T00:59:05.651Z,100499.00
2022-10-19T00:59:20.827Z,100499.00
2022-10-19T00:59:34.083Z,100495.53
2022-10-19T00:59:46.855Z,100499.06
2022-10-19T01:00:00.875Z,100499.13
2022-10-19T01:00:13.145Z,100498.22
2022-10-19T01:00:25.476Z,100493.88
2022-10-19T01:00:37.590Z,100505.47
2022-10-19T01:00:49.612Z,100498.47
2022-10-19T01:01:05.529Z,100504.78
2022-10-19T01:01:20.088Z,100495.81
2022-10-19T01:01:33.526Z,100497.50
2022-10-19T01:01:46.672Z,100503.63
2022-10-19T01:02:00.847Z,100493.88
2022-10-19T01:02:13.067Z,100498.16
2022-10-19T01:02:25.117Z,100498.09
2022-10-19T01:02:37.674Z,100495.47
2022-10-19T01:02:49.657Z,100500.63
2022-10-19T01:03:02.876Z,100504.16
2022-10-19T01:03:14.949Z,100499.72
2022-10-19T01:03:27.228Z,100492.75
2022-10-19T01:03:40.059Z,100497.16
2022-10-19T01:03:52.420Z,100492.91
2022-10-19T01:04:04.876Z,100493.81
2022-10-19T01:04:18.447Z,100498.09
2022-10-19T01:04:32.535Z,100496.38
2022-10-19T01:04:48.853Z,100500.88
2022-10-19T01:05:01.151Z,100492.25
2022-10-19T01:05:14.789Z,100498.28
2022-10-19T01:05:28.545Z,100503.50
2022-10-19T01:05:41.187Z,100503.63
2022-10-19T01:05:53.286Z,100499.28
2022-10-19T01:06:06.068Z,100496.66
2022-10-19T01:06:18.717Z,100501.88
2022-10-19T01:06:31.682Z,100498.34
2022-10-19T01:06:43.650Z,100493.88
2022-10-19T01:06:57.327Z,100495.59
2022-10-19T01:07:09.333Z,100498.22
2022-10-19T01:07:21.620Z,100496.50
2022-10-19T01:07:33.777Z,100498.34
2022-10-19T01:07:45.974Z,100496.66
2022-10-19T01:07:58.189Z,100492.25
2022-10-19T01:08:11.584Z,100495.66
2022-10-19T01:08:23.873Z,100494.69
2022-10-19T01:08:35.772Z,100504.16
2022-10-19T01:08:47.675Z,100496.50
2022-10-19T01:08:59.566Z,100488.78
2022-10-19T01:09:11.475Z,100499.59
2022-10-19T01:09:23.608Z,100502.22
2022-10-19T01:09:35.666Z,100498.81
2022-10-19T01:09:47.628Z,100495.22
2022-10-19T01:10:00.970Z,100491.69
2022-10-19T01:10:13.143Z,100494.44
2022-10-19T01:10:40.114Z,100497.09
2022-10-19T01:10:59.116Z,100496.00
2022-10-19T01:11:19.657Z,100502.00
2022-10-19T01:11:45.303Z,100494.94
2022-10-19T01:11:59.988Z,100502.84
2022-10-19T01:12:31.141Z,100494.03
2022-10-19T01:13:04.715Z,100489.56
2022-10-19T01:13:19.099Z,100491.25
2022-10-19T01:13:49.661Z,100493.88
2022-10-19T01:14:20.152Z,100491.25
2022-10-19T01:14:46.775Z,100491.00
2022-10-19T01:15:09.902Z,100493.63
2022-10-19T01:15:36.070Z,100491.78
2022-10-19T01:16:30.239Z,100495.97
2022-10-19T01:17:00.868Z,100489.00
2022-10-19T01:17:21.697Z,100488.94
2022-10-19T01:17:49.635Z,100487.16
2022-10-19T01:18:10.735Z,100488.94
2022-10-19T01:18:44.249Z,100488.88
2022-10-19T01:19:07.870Z,100483.47
2022-10-19T01:19:37.948Z,100486.88
2022-10-19T01:20:11.176Z,100483.16
2022-10-19T01:20:45.211Z,100479.69
2022-10-19T01:21:22.636Z,100484.16
2022-10-19T01:22:07.652Z,100476.34
2022-10-19T01:22:45.309Z,100478.91
2022-10-19T01:23:06.487Z,100480.53
2022-10-19T01:23:36.582Z,100477.91
2022-10-19T01:24:23.424Z,100474.38
2022-10-19T01:24:47.095Z,100479.47
2022-10-19T01:25:10.541Z,100472.66
2022-10-19T01:25:24.455Z,100476.78
2022-10-19T01:26:04.070Z,100474.09
2022-10-19T01:26:36.668Z,100471.28
2022-10-19T01:27:05.422Z,100471.28
2022-10-19T01:27:34.915Z,100468.97
2022-10-19T01:27:49.902Z,100472.38
2022-10-19T01:28:17.964Z,100471.66
2022-10-19T01:28:46.003Z,100470.09
2022-10-19T01:29:06.952Z,100472.03
2022-10-19T01:29:58.798Z,100470.97
2022-10-19T01:30:14.699Z,100475.00
2022-10-19T01:30:41.109Z,100472.38
2022-10-19T01:31:16.695Z,100463.88
2022-10-19T01:31:34.276Z,100475.50
2022-10-19T01:32:03.168Z,100472.81
2022-10-19T01:32:28.205Z,100474.50
2022-10-19T01:32:49.091Z,100468.34
2022-10-19T01:33:11.354Z,100472.53
2022-10-19T01:33:42.260Z,100467.09
2022-10-19T01:34:10.733Z,100463.63
2022-10-19T01:34:28.018Z,100467.97
2022-10-19T01:35:04.175Z,100468.66
2022-10-19T01:35:48.150Z,100459.88
2022-10-19T01:36:15.020Z,100467.09
2022-10-19T01:36:41.713Z,100467.28
2022-10-19T01:37:01.233Z,100468.34
2022-10-19T01:37:33.775Z,100468.25
2022-10-19T01:37:55.362Z,100467.41
2022-10-19T01:38:09.837Z,100461.13
2022-10-19T01:38:37.433Z,100461.00
2022-10-19T01:39:02.220Z,100466.13
2022-10-19T01:39:45.288Z,100459.81
2022-10-19T01:40:08.382Z,100459.69
2022-10-19T01:40:34.531Z,100459.56
2022-10-19T01:41:24.632Z,100451.69
2022-10-19T01:41:59.682Z,100461.13
2022-10-19T01:42:23.376Z,100452.28
2022-10-19T01:42:59.892Z,100456.47
2022-10-19T01:43:39.093Z,100452.00
2022-10-19T01:44:03.320Z,100453.00
2022-10-19T01:44:27.687Z,100447.91
2022-10-19T01:44:51.360Z,100446.91
2022-10-19T01:45:09.402Z,100450.31
2022-10-19T01:45:25.733Z,100449.53
2022-10-19T01:45:58.339Z,100451.38
2022-10-19T01:46:39.074Z,100440.81
2022-10-19T01:46:55.694Z,100441.66
2022-10-19T01:47:25.824Z,100443.34
2022-10-19T01:47:59.700Z,100443.50
2022-10-19T01:48:18.841Z,100441.78
2022-10-19T01:48:34.761Z,100439.16
2022-10-19T01:48:54.480Z,100444.41
2022-10-19T01:49:25.118Z,100441.78
2022-10-19T01:49:45.414Z,100436.69
2022-10-19T01:50:03.210Z,100438.53
2022-10-19T01:50:21.411Z,100441.94
2022-10-19T01:50:47.529Z,100433.22
2022-10-19T01:51:10.362Z,100432.22
2022-10-19T01:51:32.490Z,100434.66
2022-10-19T01:51:52.815Z,100437.31
2022-10-19T01:52:08.491Z,100431.50
2022-10-19T01:52:23.394Z,100434.97
2022-10-19T01:52:38.302Z,100439.44
2022-10-19T01:52:51.616Z,100430.66
2022-10-19T01:53:07.213Z,100431.44
2022-10-19T01:53:20.892Z,100441.00
2022-10-19T01:53:38.939Z,100436.81
2022-10-19T01:53:54.306Z,100439.44
2022-10-19T01:54:09.690Z,100428.94
2022-10-19T01:54:24.010Z,100429.88
2022-10-19T01:54:40.192Z,100429.16
2022-10-19T01:55:02.707Z,100433.53
2022-10-19T01:55:17.478Z,100439.56
2022-10-19T01:55:30.333Z,100435.28
2022-10-19T01:55:44.809Z,100433.59
2022-10-19T01:56:00.906Z,100435.28
2022-10-19T01:56:14.735Z,100430.00
2022-10-19T01:56:29.028Z,100430.88
2022-10-19T01:56:44.065Z,100429.94
2022-10-19T01:56:59.590Z,100430.00
2022-10-19T01:57:15.234Z,100432.75
2022-10-19T01:57:33.101Z,100430.19
2022-10-19T01:57:52.476Z,100432.88
2022-10-19T01:58:09.840Z,100431.19
2022-10-19T01:58:27.598Z,100434.59
2022-10-19T01:58:43.778Z,100432.03
2022-10-19T01:59:00.067Z,100428.47
2022-10-19T01:59:13.969Z,100430.19
2022-10-19T01:59:26.628Z,100428.34
2022-10-19T01:59:39.475Z,100428.41
2022-10-19T01:59:52.603Z,100425.84
2022-10-19T02:00:07.757Z,100428.63
2022-10-19T02:00:22.981Z,100423.38
2022-10-19T02:00:40.998Z,100431.47
2022-10-19T02:00:55.795Z,100429.13
2022-10-19T02:01:27.495Z,100428.06
2022-10-19T02:01:44.023Z,100423.66
2022-10-19T02:01:57.145Z,100421.94
2022-10-19T02:02:10.650Z,100429.06
2022-10-19T02:02:26.072Z,100422.91
2022-10-19T02:02:42.661Z,100432.63
2022-10-19T02:02:55.192Z,100428.16
2022-10-19T02:03:08.063Z,100430.69
2022-10-19T02:03:20.745Z,100422.72
2022-10-19T02:03:34.582Z,100425.34
2022-10-19T02:03:46.740Z,100429.72
2022-10-19T02:04:00.575Z,100435.75
2022-10-19T02:04:15.699Z,100425.22
2022-10-19T02:04:27.703Z,100427.84
2022-10-19T02:04:40.887Z,100430.31
2022-10-19T02:04:55.279Z,100435.75
2022-10-19T02:05:08.666Z,100428.75
2022-10-19T02:05:24.495Z,100427.06
2022-10-19T02:05:38.896Z,100427.06
2022-10-19T02:05:52.614Z,100424.44
2022-10-19T02:06:07.316Z,100428.75
2022-10-19T02:06:20.394Z,100427.97
2022-10-19T02:06:32.374Z,100431.47
2022-10-19T02:06:44.696Z,100432.34
2022-10-19T02:06:57.192Z,100425.22
2022-10-19T02:07:10.881Z,100430.31
2022-10-19T02:07:24.783Z,100432.03
2022-10-19T02:07:37.870Z,100425.06
2022-10-19T02:07:55.925Z,100427.69
2022-10-19T02:08:18.209Z,100426.78
2022-10-19T02:08:36.818Z,100425.00
2022-10-19T02:08:52.090Z,100427.56
2022-10-19T02:09:04.119Z,100431.88
2022-10-19T02:09:18.070Z,100427.50
2022-10-19T02:09:30.719Z,100424.75
2022-10-19T02:09:42.672Z,100422.13
2022-10-19T02:09:55.810Z,100418.72
2022-10-19T02:10:08.424Z,100421.34
2022-10-19T02:10:21.878Z,100417.88
2022-10-19T02:10:35.189Z,100423.97
2022-10-19T02:10:47.868Z,100417.94
2022-10-19T02:11:01.486Z,100422.38
2022-10-19T02:11:14.003Z,100426.78
2022-10-19T02:11:26.131Z,100412.69
2022-10-19T02:11:38.154Z,100422.38
2022-10-19T02:11:57.235Z,100422.38
2022-10-19T02:12:11.282Z,100418.81
2022-10-19T02:12:25.374Z,100419.59
2022-10-19T02:12:37.894Z,100420.44
2022-10-19T02:12:52.335Z,100423.06
2022-10-19T02:13:06.939Z,100417.88
2022-10-19T02:13:20.989Z,100419.50
2022-10-19T02:13:33.361Z,100421.28
2022-10-19T02:13:48.216Z,100414.25
2022-10-19T02:14:04.855Z,100415.19
2022-10-19T02:14:19.588Z,100419.81
2022-10-19T02:14:36.829Z,100416.19
2022-10-19T02:14:52.390Z,100425.34
2022-10-19T02:15:10.610Z,100420.88
2022-10-19T02:15:26.298Z,100421.66
2022-10-19T02:15:43.652Z,100418.25
2022-10-19T02:15:58.645Z,100414.72
2022-10-19T02:16:29.458Z,100413.94
2022-10-19T02:16:54.895Z,100419.97
2022-10-19T02:17:13.946Z,100421.66
2022-10-19T02:17:30.662Z,100420.75
2022-10-19T02:17:48.748Z,100423.66
2022-10-19T02:18:02.679Z,100420.09
2022-10-19T02:18:19.719Z,100423.66
2022-10-19T02:18:37.402Z,100421.81
2022-10-19T02:18:52.025Z,100421.94
2022-10-19T02:19:08.427Z,100423.66
2022-10-19T02:19:22.007Z,100423.50
2022-10-19T02:19:34.043Z,100420.41
2022-10-19T02:19:45.986Z,100424.09
2022-10-19T02:19:58.920Z,100421.19
2022-10-19T02:20:10.926Z,100426.44
2022-10-19T02:20:23.536Z,100421.03
2022-10-19T02:20:37.094Z,100426.19
2022-10-19T02:20:49.131Z,100425.34
2022-10-19T02:21:03.265Z,100418.41
2022-10-19T02:21:15.315Z,100428.75
2022-10-19T02:21:28.436Z,100420.09
2022-10-19T02:21:40.583Z,100429.72
2022-10-19T02:21:52.624Z,100418.25
2022-10-19T02:22:04.690Z,100417.28
2022-10-19T02:22:16.675Z,100417.19
2022-10-19T02:22:29.185Z,100422.44
2022-10-19T02:22:41.332Z,100421.53
2022-10-19T02:22:53.229Z,100420.59
2022-10-19T02:23:06.262Z,100422.31
2022-10-19T02:23:22.065Z,100422.31
2022-10-19T02:23:34.116Z,100418.72
2022-10-19T02:23:48.337Z,100422.31
2022-10-19T02:24:02.465Z,100421.34
2022-10-19T02:24:14.460Z,100423.06
2022-10-19T02:24:26.411Z,100420.50
2022-10-19T02:24:38.652Z,100420.69
2022-10-19T02:24:50.630Z,100419.66
2022-10-19T02:25:03.350Z,100424.09
2022-10-19T02:25:15.991Z,100425.06
2022-10-19T02:25:27.991Z,100421.53
2022-10-19T02:25:39.898Z,100416.28
2022-10-19T02:25:52.152Z,100423.22
2022-10-19T02:26:04.663Z,100422.38
2022-10-19T02:26:16.665Z,100419.81
2022-10-19T02:26:28.585Z,100425.00
2022-10-19T02:26:41.562Z,100425.78
2022-10-19T02:26:54.450Z,100421.34
2022-10-19T02:27:08.064Z,100426.63
2022-10-19T02:27:20.164Z,100417.03
2022-10-19T02:27:32.804Z,100425.94
2022-10-19T02:27:45.094Z,100419.81
2022-10-19T02:27:57.104Z,100425.06
2022-10-19T02:28:09.069Z,100414.56
2022-10-19T02:28:22.387Z,100421.53
2022-10-19T02:28:35.209Z,100417.34
2022-10-19T02:28:48.122Z,100416.47
2022-10-19T02:29:00.264Z,100420.94
2022-10-19T02:29:14.676Z,100414.00
2022-10-19T02:29:27.514Z,100411.31
2022-10-19T02:29:40.693Z,100417.41
2022-10-19T02:29:53.735Z,100418.25
2022-10-19T02:30:06.717Z,100425.16
2022-10-19T02:30:22.219Z,100425.06
2022-10-19T02:30:34.286Z,100417.94
2022-10-19T02:30:46.505Z,100417.94
2022-10-19T02:30:59.713Z,100423.22
2022-10-19T02:31:11.977Z,100413.56
2022-10-19T02:31:24.901Z,100417.09
2022-10-19T02:31:37.309Z,100415.25
2022-10-19T02:31:49.260Z,100413.47
2022-10-19T02:32:02.049Z,100420.69
2022-10-19T02:32:14.235Z,100424.94
2022-10-19T02:32:27.645Z,100412.69
2022-10-19T02:32:39.776Z,100412.69
2022-10-19T02:32:51.842Z,100420.38
2022-10-19T02:33:03.904Z,100417.81
2022-10-19T02:33:16.232Z,100418.72
2022-10-19T02:33:29.409Z,100418.59
2022-10-19T02:33:41.473Z,100417.75
2022-10-19T02:33:54.222Z,100413.34
2022-10-19T02:34:06.840Z,100417.66
2022-10-19T02:34:18.851Z,100417.75
2022-10-19T02:34:31.374Z,100421.28
2022-10-19T02:34:43.498Z,100417.75
2022-10-19T02:34:55.527Z,100412.56
2022-10-19T02:35:07.968Z,100420.50
2022-10-19T02:35:20.035Z,100416.09
2022-10-19T02:35:32.042Z,100420.44
2022-10-19T02:35:44.128Z,100415.25
2022-10-19T02:35:57.451Z,100417.28
2022-10-19T02:36:09.415Z,100414.72
2022-10-19T02:36:21.607Z,100420.28
2022-10-19T02:36:33.585Z,100414.00
2022-10-19T02:36:45.648Z,100414.84
2022-10-19T02:36:57.867Z,100419.09
2022-10-19T02:37:09.999Z,100415.56
2022-10-19T02:37:25.583Z,100418.31
2022-10-19T02:37:38.774Z,100407.75
2022-10-19T02:37:50.828Z,100412.94
2022-10-19T02:38:04.712Z,100419.97
2022-10-19T02:38:20.253Z,100417.47
2022-10-19T02:38:32.275Z,100417.53
2022-10-19T02:38:44.565Z,100409.75
2022-10-19T02:38:56.588Z,100415.00
2022-10-19T02:39:08.988Z,100412.38
2022-10-19T02:39:21.326Z,100408.97
2022-10-19T02:39:33.759Z,100411.59
2022-10-19T02:39:45.894Z,100410.66
2022-10-19T02:39:57.934Z,100411.75
2022-10-19T02:40:10.930Z,100410.84
2022-10-19T02:40:23.816Z,100409.13
2022-10-19T02:40:40.211Z,100409.88
2022-10-19T02:41:11.127Z,100413.28
2022-10-19T02:41:44.816Z,100405.34
2022-10-19T02:42:08.474Z,100406.34
2022-10-19T02:42:28.384Z,100410.72
2022-10-19T02:42:43.426Z,100409.13
2022-10-19T02:43:03.853Z,100409.03
2022-10-19T02:43:19.231Z,100408.22
2022-10-19T02:43:34.653Z,100405.72
2022-10-19T02:43:51.397Z,100409.13
2022-10-19T02:44:33.762Z,100409.88
2022-10-19T02:44:58.279Z,100410.72
2022-10-19T02:45:17.347Z,100409.75
2022-10-19T02:45:32.668Z,100411.44
2022-10-19T02:45:56.108Z,100412.28
2022-10-19T02:46:21.310Z,100406.06
2022-10-19T02:46:42.208Z,100408.81
2022-10-19T02:47:13.802Z,100403.63
2022-10-19T02:47:29.870Z,100409.59
2022-10-19T02:47:49.394Z,100406.19
2022-10-19T02:48:07.322Z,100406.13
2022-10-19T02:48:23.355Z,100411.44
2022-10-19T02:48:38.600Z,100405.34
2022-10-19T02:48:51.754Z,100407.03
2022-10-19T02:49:05.323Z,100408.03
2022-10-19T02:49:17.990Z,100409.03
2022-10-19T02:49:34.377Z,100406.50
2022-10-19T02:49:47.628Z,100407.34
2022-10-19T02:49:59.803Z,100410.19
2022-10-19T02:50:12.328Z,100410.13
2022-10-19T02:50:24.544Z,100413.59
2022-10-19T02:50:36.608Z,100406.66
2022-10-19T02:50:48.674Z,100411.81
2022-10-19T02:51:00.616Z,100416.16
2022-10-19T02:51:33.016Z,100408.22
2022-10-19T02:52:01.243Z,100408.34
2022-10-19T02:52:13.828Z,100403.09
2022-10-19T02:52:25.722Z,100407.44
2022-10-19T02:52:39.012Z,100408.34
2022-10-19T02:52:51.077Z,100412.59
2022-10-19T02:53:03.426Z,100408.22
2022-10-19T02:53:16.544Z,100411.91
2022-10-19T02:53:28.574Z,100413.59
2022-10-19T02:53:40.455Z,100410.06
2022-10-19T02:53:52.326Z,100408.34
2022-10-19T02:54:06.237Z,100411.03
2022-10-19T02:54:18.432Z,100409.28
2022-10-19T02:54:30.492Z,100413.59
2022-10-19T02:54:44.620Z,100406.56
2022-10-19T02:54:56.527Z,100411.75
2022-10-19T02:55:09.073Z,100411.75
2022-10-19T02:55:21.119Z,100409.03
2022-10-19T02:55:33.131Z,100413.47
2022-10-19T02:55:48.445Z,100404.81
2022-10-19T02:56:00.332Z,100407.34
2022-10-19T02:56:12.249Z,100410.97
2022-10-19T02:56:24.328Z,100407.44
2022-10-19T02:56:36.285Z,100411.75
2022-10-19T02:56:48.247Z,100404.81
2022-10-19T02:57:00.617Z,100402.06
2022-10-19T02:57:15.048Z,100399.69
2022-10-19T02:57:26.969Z,100414.44
2022-10-19T02:57:38.884Z,100405.88
2022-10-19T02:57:50.813Z,100405.78
2022-10-19T02:58:02.678Z,100402.25